METAR AND TAF INFORMATION
METAR FOR MYAF
ADDS - METARS form results

(0351 UTC 07 October 2022)
Data provider http://aviationweather.gov/metar/data/
 
METAR text: MYAF 070300Z AUTO 05006KT 350V090 0050 FG FEW032 27/21 A3006
Conditions at: MYAF (ANDROS TOWN , BS) observed 0300 UTC 07 October 2022
Temperature: 27.0°C (81°F)
Dewpoint: 21.0°C (70°F) [RH = 70%]
Pressure (altimeter): 30.06 inches Hg (1018.0 mb)
Winds: from the NE (50 degrees) at 7 MPH (6 knots; 3.1 m/s)
Visibility: 0.03 miles (0.05 km)
Ceiling: at least 12,000 feet AGL
Clouds: few clouds at 3200 feet AGL
Weather: FG  (fog)

 AIRPORT MAP

 RUNWAY INFORMATION
Runway 09 Runway length 4355 ft Runway width 100 ft
Runway elevation 0 ft Runway displaced threshold 0 ft Runway heading 90
Runway 27 Runway length 4355 ft Runway width 100 ft
Runway elevation 0 ft Runway displaced threshold 0 ft Runway heading 270

 AIRPORT FREQUENCIES
Type OPS Name AUTEC OPS Frequency 126.3 MHZ
Type UNIC Name UNICOM Frequency 122.8 MHZ

 AIRPORT NEAR NAVIGATION AIDS



Powered by Virtual Airlines Manager [v2.6.2]